createdAt,value
2023-03-19T00:02:15.692Z,3.77
2023-03-19T00:04:39.025Z,13.28
2023-03-19T00:07:12.499Z,4.75
2023-03-19T00:09:48.530Z,4.87
2023-03-19T00:12:23.429Z,5.28
2023-03-19T00:14:57.067Z,8.13
2023-03-19T00:17:30.282Z,5.60
2023-03-19T00:20:03.679Z,5.12
2023-03-19T00:22:36.923Z,3.17
2023-03-19T00:25:11.242Z,8.73
2023-03-19T00:27:44.981Z,4.55
2023-03-19T00:30:19.969Z,5.95
2023-03-19T00:32:54.992Z,5.05
2023-03-19T00:35:28.695Z,4.17
2023-03-19T00:38:01.860Z,4.15
2023-03-19T00:40:37.336Z,9.40
2023-03-19T00:43:10.632Z,5.60
2023-03-19T00:45:44.034Z,5.72
2023-03-19T00:48:17.184Z,7.35
2023-03-19T00:50:50.529Z,5.28
2023-03-19T00:53:25.453Z,4.58
2023-03-19T00:55:58.640Z,6.50
2023-03-19T00:58:32.111Z,8.18
2023-03-19T01:01:07.653Z,6.97
2023-03-19T01:03:41.686Z,4.35
2023-03-19T01:06:15.988Z,3.55
2023-03-19T01:08:49.245Z,4.72
2023-03-19T01:11:23.536Z,4.47
2023-03-19T01:14:01.817Z,4.20
2023-03-19T01:16:35.869Z,4.47
2023-03-19T01:19:09.308Z,7.37
2023-03-19T01:21:44.143Z,4.75
2023-03-19T01:24:18.891Z,4.50
2023-03-19T01:26:53.628Z,5.87
2023-03-19T01:29:28.576Z,8.15
2023-03-19T01:32:03.540Z,4.42
2023-03-19T01:34:56.399Z,4.80
2023-03-19T01:37:29.646Z,8.73
2023-03-19T01:40:03.964Z,3.62
2023-03-19T01:42:38.610Z,5.50
2023-03-19T01:45:34.847Z,4.53
2023-03-19T01:48:31.540Z,4.33
2023-03-19T01:51:09.065Z,5.42
2023-03-19T01:53:59.154Z,5.47
2023-03-19T01:56:39.010Z,5.50
2023-03-19T01:59:21.444Z,9.13
2023-03-19T02:02:15.491Z,4.53
2023-03-19T02:04:52.304Z,5.42
2023-03-19T02:07:26.727Z,6.30
2023-03-19T02:10:01.220Z,5.12
2023-03-19T02:12:35.028Z,6.28
2023-03-19T02:15:10.476Z,4.55
2023-03-19T02:17:46.007Z,5.70
2023-03-19T02:20:27.276Z,8.65
2023-03-19T02:23:06.743Z,5.65
2023-03-19T02:25:45.486Z,4.28
2023-03-19T02:28:24.544Z,4.00
2023-03-19T02:30:58.687Z,8.45
2023-03-19T02:33:32.093Z,5.92
2023-03-19T02:36:09.105Z,5.97
2023-03-19T02:38:44.771Z,4.78
2023-03-19T02:41:21.223Z,6.10
2023-03-19T02:43:55.505Z,8.50
2023-03-19T02:46:29.188Z,5.78
2023-03-19T02:49:04.144Z,6.10
2023-03-19T02:51:37.727Z,3.75
2023-03-19T02:54:11.341Z,6.78
2023-03-19T02:56:52.599Z,5.45
2023-03-19T02:59:25.826Z,4.70
2023-03-19T03:02:01.698Z,4.53
2023-03-19T03:04:37.869Z,5.10
2023-03-19T03:07:12.158Z,6.37
2023-03-19T03:09:49.070Z,7.37
2023-03-19T03:12:23.896Z,8.88
2023-03-19T03:14:57.184Z,9.18
2023-03-19T03:17:30.595Z,9.40
2023-03-19T03:20:03.683Z,5.28
2023-03-19T03:22:38.459Z,6.87
2023-03-19T03:25:14.342Z,7.33
2023-03-19T03:27:51.063Z,8.18
2023-03-19T03:30:25.399Z,6.97
2023-03-19T03:32:58.732Z,7.03
2023-03-19T03:35:34.287Z,5.67
2023-03-19T03:38:07.651Z,8.20
2023-03-19T03:40:42.004Z,6.10
2023-03-19T03:43:18.562Z,12.33
2023-03-19T03:45:51.829Z,7.92
2023-03-19T03:48:26.151Z,9.68
2023-03-19T03:50:59.312Z,8.73
2023-03-19T03:53:33.428Z,9.33
2023-03-19T03:56:09.662Z,6.12
2023-03-19T03:58:43.170Z,5.20
2023-03-19T04:01:21.550Z,5.15
2023-03-19T04:03:55.966Z,7.50
2023-03-19T04:06:30.295Z,4.92
2023-03-19T04:09:07.752Z,5.83
2023-03-19T04:11:42.639Z,11.33
2023-03-19T04:14:16.068Z,6.87
2023-03-19T04:16:53.999Z,6.35
2023-03-19T04:19:27.382Z,7.80
2023-03-19T04:22:00.589Z,7.80
2023-03-19T04:24:34.425Z,10.05
2023-03-19T04:27:11.084Z,6.62
2023-03-19T04:29:47.198Z,7.08
2023-03-19T04:32:22.167Z,5.05
2023-03-19T04:34:55.341Z,5.95
2023-03-19T04:37:32.092Z,9.23
2023-03-19T04:40:07.857Z,9.08
2023-03-19T04:42:44.756Z,7.62
2023-03-19T04:45:22.704Z,10.85
2023-03-19T04:47:57.119Z,7.73
2023-03-19T04:50:31.713Z,8.15
2023-03-19T04:53:06.848Z,9.05
2023-03-19T04:55:41.203Z,6.25
2023-03-19T04:58:19.690Z,5.87
2023-03-19T05:00:54.562Z,7.65
2023-03-19T05:03:31.636Z,9.55
2023-03-19T05:06:05.862Z,11.68
2023-03-19T05:08:39.008Z,10.63
2023-03-19T05:11:12.315Z,8.08
2023-03-19T05:13:51.425Z,7.95
2023-03-19T05:16:24.540Z,9.35
2023-03-19T05:18:59.661Z,14.03
2023-03-19T05:21:34.244Z,8.85
2023-03-19T05:24:07.945Z,7.78
2023-03-19T05:26:42.013Z,9.08
2023-03-19T05:29:23.419Z,7.70
2023-03-19T05:32:03.395Z,7.35
2023-03-19T05:34:36.861Z,8.13
2023-03-19T05:37:10.236Z,8.25
2023-03-19T05:39:43.579Z,12.63
2023-03-19T05:42:20.300Z,17.27
2023-03-19T05:44:53.743Z,6.70
2023-03-19T05:47:28.480Z,12.60
2023-03-19T05:50:02.390Z,13.18
2023-03-19T05:52:35.898Z,8.98
2023-03-19T05:55:11.232Z,9.90
2023-03-19T05:57:50.445Z,11.05
2023-03-19T06:00:25.951Z,8.20
2023-03-19T06:02:59.470Z,6.95
2023-03-19T06:05:37.524Z,7.53
2023-03-19T06:08:23.509Z,9.45
2023-03-19T06:11:01.117Z,10.45
2023-03-19T06:13:34.661Z,12.82
2023-03-19T06:16:12.510Z,9.80
2023-03-19T06:18:53.922Z,10.65
2023-03-19T06:21:30.503Z,8.90
2023-03-19T06:24:05.956Z,7.95
2023-03-19T06:26:41.119Z,10.08
2023-03-19T06:29:20.041Z,7.10
2023-03-19T06:31:56.842Z,8.35
2023-03-19T06:34:31.836Z,11.57
2023-03-19T06:37:05.667Z,8.33
2023-03-19T06:39:42.652Z,10.70
2023-03-19T06:42:19.947Z,9.83
2023-03-19T06:44:53.890Z,11.25
2023-03-19T06:47:27.473Z,8.45
2023-03-19T06:50:01.357Z,10.88
2023-03-19T06:52:33.725Z,9.13
2023-03-19T06:55:08.196Z,16.62
2023-03-19T06:57:41.708Z,11.65
2023-03-19T07:00:20.864Z,12.58
2023-03-19T07:02:54.279Z,14.18
2023-03-19T07:05:35.624Z,11.18
2023-03-19T07:08:12.173Z,10.13
2023-03-19T07:11:00.977Z,10.10
2023-03-19T07:13:37.840Z,13.18
2023-03-19T07:16:11.756Z,15.40
2023-03-19T07:21:23.208Z,9.03
2023-03-19T07:26:57.894Z,12.20
2023-03-19T07:29:31.286Z,13.43
2023-03-19T07:32:04.933Z,8.63
2023-03-19T07:34:38.169Z,8.45
2023-03-19T07:37:11.875Z,10.60
2023-03-19T07:39:45.122Z,10.40
2023-03-19T07:42:22.148Z,11.80
2023-03-19T07:44:55.366Z,10.15
2023-03-19T07:47:29.709Z,11.05
2023-03-19T07:50:04.131Z,11.08
2023-03-19T07:52:37.426Z,4.85
2023-03-19T07:55:12.974Z,10.43
2023-03-19T07:57:49.083Z,9.58
2023-03-19T08:00:23.586Z,7.20
2023-03-19T08:02:59.393Z,8.93
2023-03-19T08:05:32.536Z,8.20
2023-03-19T08:08:06.621Z,5.80
2023-03-19T08:10:40.531Z,7.78
2023-03-19T08:13:15.181Z,7.90
2023-03-19T08:15:53.573Z,8.88
2023-03-19T08:18:27.561Z,9.38
2023-03-19T08:21:00.842Z,8.95
2023-03-19T08:23:36.472Z,9.13
2023-03-19T08:26:09.641Z,7.30
2023-03-19T08:28:47.503Z,10.53
2023-03-19T08:31:20.704Z,9.28
2023-03-19T08:33:54.093Z,6.90
2023-03-19T08:36:30.546Z,8.48
2023-03-19T08:39:04.465Z,18.35
2023-03-19T08:41:39.390Z,9.23
2023-03-19T08:44:14.482Z,6.92
2023-03-19T08:46:51.428Z,10.20
2023-03-19T08:49:24.588Z,7.87
2023-03-19T08:51:57.898Z,8.50
2023-03-19T08:54:33.981Z,8.73
2023-03-19T08:57:10.108Z,7.58
2023-03-19T08:59:43.206Z,5.95
2023-03-19T09:02:20.003Z,9.10
2023-03-19T09:04:53.479Z,7.92
2023-03-19T09:07:26.775Z,8.48
2023-03-19T09:10:00.029Z,7.37
2023-03-19T09:12:34.390Z,9.75
2023-03-19T09:15:10.209Z,9.03
2023-03-19T09:17:48.191Z,8.58
2023-03-19T09:20:21.893Z,7.70
2023-03-19T09:22:55.138Z,7.55
2023-03-19T09:25:28.326Z,6.45
2023-03-19T09:28:01.679Z,9.65
2023-03-19T09:30:35.026Z,10.60
2023-03-19T09:33:09.133Z,11.12
2023-03-19T09:35:42.988Z,10.00
2023-03-19T09:38:19.334Z,8.68
2023-03-19T09:40:56.954Z,10.88
2023-03-19T09:43:42.309Z,11.22
2023-03-19T09:46:22.874Z,9.38
2023-03-19T09:49:00.107Z,8.08
2023-03-19T09:51:36.783Z,13.30
2023-03-19T09:54:20.243Z,7.78
2023-03-19T09:56:54.581Z,9.13
2023-03-19T09:59:30.876Z,7.70
2023-03-19T10:02:28.196Z,12.25
2023-03-19T10:05:10.144Z,6.97
2023-03-19T10:08:11.832Z,9.53
2023-03-19T10:10:56.216Z,7.30
2023-03-19T10:13:48.722Z,10.53
2023-03-19T10:16:25.633Z,11.22
2023-03-19T10:19:02.073Z,10.30
2023-03-19T10:21:39.903Z,8.23
2023-03-19T10:24:18.453Z,13.62
2023-03-19T10:27:18.728Z,8.53
2023-03-19T10:30:00.762Z,9.45
2023-03-19T10:32:40.338Z,10.40
2023-03-19T10:35:22.574Z,16.55
2023-03-19T10:37:55.940Z,10.23
2023-03-19T10:40:32.361Z,6.85
2023-03-19T10:43:12.737Z,8.38
2023-03-19T10:45:50.503Z,7.62
2023-03-19T10:48:28.324Z,6.97
2023-03-19T10:51:04.606Z,6.00
2023-03-19T10:53:39.090Z,8.88
2023-03-19T10:56:23.352Z,8.80
2023-03-19T10:59:02.645Z,5.40
2023-03-19T11:01:39.529Z,8.40
2023-03-19T11:04:20.441Z,10.23
2023-03-19T11:06:55.515Z,9.35
2023-03-19T11:09:34.628Z,8.45
2023-03-19T11:12:20.601Z,12.25
2023-03-19T11:14:55.161Z,6.60
2023-03-19T11:17:31.807Z,10.35
2023-03-19T11:20:19.872Z,7.03
2023-03-19T11:22:56.478Z,7.17
2023-03-19T11:25:32.490Z,8.68
2023-03-19T11:28:09.930Z,6.15
2023-03-19T11:30:47.482Z,5.95
2023-03-19T11:33:55.289Z,9.98
2023-03-19T11:36:35.106Z,6.78
2023-03-19T11:39:21.414Z,16.20
2023-03-19T11:42:07.908Z,9.53
2023-03-19T11:44:50.584Z,7.15
2023-03-19T11:47:28.319Z,9.38
2023-03-19T11:50:25.680Z,8.53
2023-03-19T11:53:16.992Z,6.65
2023-03-19T11:55:54.627Z,11.43
2023-03-19T11:58:49.196Z,6.92
2023-03-19T12:01:31.567Z,9.00
2023-03-19T12:04:29.985Z,9.45
2023-03-19T12:09:44.709Z,10.72
2023-03-19T12:12:26.830Z,11.55
2023-03-19T12:15:17.997Z,10.35
2023-03-19T12:18:00.050Z,11.95
2023-03-19T12:20:43.042Z,11.05
2023-03-19T12:23:22.542Z,8.10
2023-03-19T12:26:06.259Z,7.28
2023-03-19T12:28:42.938Z,18.52
2023-03-19T12:31:32.337Z,9.80
2023-03-19T12:34:15.128Z,9.78
2023-03-19T12:36:52.111Z,10.82
2023-03-19T12:39:29.245Z,9.03
2023-03-19T12:42:04.353Z,11.93
2023-03-19T12:44:40.352Z,9.78
2023-03-19T12:47:16.901Z,13.03
2023-03-19T12:49:53.091Z,11.97
2023-03-19T12:52:29.211Z,8.85
2023-03-19T12:55:06.062Z,10.53
2023-03-19T12:57:54.561Z,10.53
2023-03-19T13:00:32.558Z,9.63
2023-03-19T13:03:09.533Z,9.73
2023-03-19T13:05:45.921Z,11.70
2023-03-19T13:08:23.725Z,9.93
2023-03-19T13:10:59.686Z,12.58
2023-03-19T13:13:40.019Z,15.45
2023-03-19T13:16:21.141Z,9.88
2023-03-19T13:18:58.269Z,15.50
2023-03-19T13:21:34.327Z,14.30
2023-03-19T13:24:21.968Z,10.05
2023-03-19T13:26:53.110Z,8.80
2023-03-19T13:29:27.989Z,12.33
2023-03-19T13:32:06.815Z,9.03
2023-03-19T13:34:41.677Z,10.43
2023-03-19T13:37:21.350Z,9.55
2023-03-19T13:39:54.618Z,13.65
2023-03-19T13:42:43.281Z,12.03
2023-03-19T13:45:44.097Z,13.70
2023-03-19T13:48:43.405Z,10.85
2023-03-19T13:54:50.873Z,11.73
2023-03-19T14:01:01.455Z,8.60
2023-03-19T14:06:46.424Z,11.45
2023-03-19T14:12:42.112Z,10.85
2023-03-19T14:15:23.060Z,12.88
2023-03-19T14:18:07.171Z,11.03
2023-03-19T14:20:51.935Z,13.15
2023-03-19T14:23:39.438Z,9.33
2023-03-19T14:26:13.257Z,9.90
2023-03-19T14:28:58.374Z,9.03
2023-03-19T14:31:46.530Z,8.63
2023-03-19T14:34:32.806Z,7.00
2023-03-19T14:37:10.202Z,12.25
2023-03-19T14:39:53.096Z,9.10
2023-03-19T14:42:30.828Z,8.20
2023-03-19T14:45:43.130Z,8.35
2023-03-19T14:48:29.528Z,11.43
2023-03-19T14:54:06.014Z,14.43
2023-03-19T14:56:42.044Z,12.80
2023-03-19T14:59:19.561Z,7.72
2023-03-19T15:01:59.730Z,10.70
2023-03-19T15:04:42.199Z,13.03
2023-03-19T15:07:20.693Z,12.80
2023-03-19T15:10:03.686Z,12.65
2023-03-19T15:12:58.288Z,9.73
2023-03-19T15:16:02.701Z,16.17
2023-03-19T15:18:39.193Z,11.63
2023-03-19T15:21:20.804Z,16.20
2023-03-19T15:23:58.890Z,18.45
2023-03-19T15:26:36.381Z,13.85
2023-03-19T15:29:12.532Z,19.82
2023-03-19T15:34:26.755Z,20.90
2023-03-19T15:37:06.162Z,16.32
2023-03-19T15:39:43.900Z,16.67
2023-03-19T15:42:20.532Z,16.02
2023-03-19T15:44:59.589Z,13.98
2023-03-19T15:47:37.217Z,12.98
2023-03-19T15:50:19.079Z,11.00
2023-03-19T15:52:55.402Z,13.60
2023-03-19T15:55:29.487Z,11.05
2023-03-19T15:58:07.042Z,13.70
2023-03-19T16:00:49.350Z,11.80
2023-03-19T16:03:26.695Z,11.05
2023-03-19T16:06:06.012Z,10.00
2023-03-19T16:08:40.743Z,22.07
2023-03-19T16:11:31.375Z,10.38
2023-03-19T16:14:09.397Z,13.93
2023-03-19T16:19:37.738Z,8.98
2023-03-19T16:22:17.369Z,11.73
2023-03-19T16:24:57.518Z,8.93
2023-03-19T16:27:38.931Z,13.90
2023-03-19T16:30:23.796Z,11.68
2023-03-19T16:33:02.725Z,16.07
2023-03-19T16:35:39.346Z,14.43
2023-03-19T16:38:23.081Z,16.37
2023-03-19T16:41:21.310Z,13.55
2023-03-19T16:44:05.874Z,15.10
2023-03-19T16:46:42.825Z,17.82
2023-03-19T16:49:16.262Z,19.27
2023-03-19T16:51:52.651Z,15.72
2023-03-19T16:54:26.455Z,20.90
2023-03-19T16:57:07.168Z,13.65
2023-03-19T16:59:46.542Z,13.93
2023-03-19T17:05:38.174Z,15.32
2023-03-19T17:08:21.623Z,13.65
2023-03-19T17:11:03.571Z,12.07
2023-03-19T17:13:48.813Z,15.93
2023-03-19T17:16:22.367Z,17.20
2023-03-19T17:19:12.110Z,17.02
2023-03-19T17:21:46.919Z,12.00
2023-03-19T17:24:25.963Z,18.85
2023-03-19T17:27:02.562Z,20.37
2023-03-19T17:29:36.280Z,16.70
2023-03-19T17:32:14.402Z,14.80
2023-03-19T17:34:50.205Z,24.87
2023-03-19T17:37:29.015Z,15.48
2023-03-19T17:40:16.542Z,12.65
2023-03-19T17:42:52.277Z,17.05
2023-03-19T17:45:34.593Z,15.95
2023-03-19T17:48:13.908Z,16.20
2023-03-19T17:50:51.457Z,18.05
2023-03-19T17:53:31.695Z,15.32
2023-03-19T17:56:08.027Z,18.10
2023-03-19T17:58:43.274Z,22.60
2023-03-19T18:01:19.246Z,17.37
2023-03-19T18:03:54.092Z,15.28
2023-03-19T18:06:32.566Z,19.12
2023-03-19T18:09:08.582Z,15.18
2023-03-19T18:12:05.669Z,22.80
2023-03-19T18:14:41.657Z,22.30
2023-03-19T18:17:18.354Z,21.77
2023-03-19T18:19:54.521Z,16.87
2023-03-19T18:22:29.167Z,18.15
2023-03-19T18:25:02.468Z,13.03
2023-03-19T18:27:43.754Z,22.62
2023-03-19T18:30:20.660Z,16.75
2023-03-19T18:32:57.264Z,19.55
2023-03-19T18:35:34.208Z,17.75
2023-03-19T18:38:19.134Z,19.10
2023-03-19T18:40:58.305Z,20.12
2023-03-19T18:43:35.547Z,13.85
2023-03-19T18:46:12.390Z,16.25
2023-03-19T18:48:51.117Z,17.37
2023-03-19T18:51:24.561Z,15.05
2023-03-19T18:53:58.119Z,16.15
2023-03-19T18:56:33.699Z,11.78
2023-03-19T18:59:10.038Z,16.95
2023-03-19T19:01:55.151Z,18.62
2023-03-19T19:04:32.121Z,13.35
2023-03-19T19:07:05.785Z,19.10
2023-03-19T19:09:40.582Z,22.75
2023-03-19T19:12:19.037Z,24.10
2023-03-19T19:14:53.914Z,19.73
2023-03-19T19:17:33.342Z,20.32
2023-03-19T19:20:10.400Z,16.42
2023-03-19T19:22:48.823Z,17.02
2023-03-19T19:25:27.507Z,21.27
2023-03-19T19:28:22.300Z,16.23
2023-03-19T19:34:03.209Z,17.40
2023-03-19T19:36:48.460Z,26.95
2023-03-19T19:42:25.289Z,20.45
2023-03-19T19:45:01.642Z,14.33
2023-03-19T19:47:36.121Z,24.65
2023-03-19T19:50:17.649Z,18.73
2023-03-19T19:52:50.954Z,21.95
2023-03-19T19:55:29.250Z,15.05
2023-03-19T19:58:02.942Z,17.90
2023-03-19T20:00:42.221Z,21.57
2023-03-19T20:03:20.012Z,21.05
2023-03-19T20:05:54.625Z,19.17
2023-03-19T20:08:28.981Z,18.82
2023-03-19T20:11:17.394Z,17.07
2023-03-19T20:13:53.883Z,16.35
2023-03-19T20:16:29.344Z,17.02
2023-03-19T20:19:08.064Z,17.97
2023-03-19T20:21:44.692Z,21.35
2023-03-19T20:24:18.538Z,22.95
2023-03-19T20:26:51.781Z,25.00
2023-03-19T20:29:24.811Z,18.73
2023-03-19T20:31:58.348Z,14.15
2023-03-19T20:34:39.005Z,15.98
2023-03-19T20:37:07.424Z,16.77
2023-03-19T20:39:40.431Z,16.40
2023-03-19T20:42:16.059Z,15.28
2023-03-19T20:44:52.218Z,16.42
2023-03-19T20:47:26.533Z,16.15
2023-03-19T20:50:02.908Z,15.43
2023-03-19T20:52:36.158Z,21.42
2023-03-19T20:55:13.264Z,14.58
2023-03-19T20:57:48.487Z,22.85
2023-03-19T21:00:28.607Z,16.10
2023-03-19T21:03:03.197Z,16.62
2023-03-19T21:05:41.097Z,21.48
2023-03-19T21:08:23.515Z,22.30
2023-03-19T21:10:58.237Z,17.82
2023-03-19T21:13:33.521Z,21.48
2023-03-19T21:16:07.933Z,20.97
2023-03-19T21:18:42.233Z,15.23
2023-03-19T21:21:16.033Z,14.58
2023-03-19T21:23:53.614Z,18.65
2023-03-19T21:26:27.465Z,17.92
2023-03-19T21:29:05.807Z,17.15
2023-03-19T21:31:38.874Z,17.73
2023-03-19T21:50:02.556Z,16.87
2023-03-19T21:52:56.350Z,10.28
2023-03-19T21:55:18.446Z,18.60
2023-03-19T21:57:53.088Z,15.72
2023-03-19T22:00:26.922Z,19.45
2023-03-19T22:02:59.978Z,14.23
2023-03-19T22:05:36.595Z,15.63
2023-03-19T22:08:09.968Z,12.17
2023-03-19T22:10:44.756Z,12.53
2023-03-19T22:13:22.535Z,10.70
2023-03-19T22:18:30.097Z,18.95
2023-03-19T22:21:03.183Z,15.10
2023-03-19T22:23:36.078Z,13.20
2023-03-19T22:26:19.499Z,12.88
2023-03-19T22:28:52.865Z,11.88
2023-03-19T22:31:26.568Z,11.88
2023-03-19T22:34:03.185Z,15.32
2023-03-19T22:36:36.143Z,14.68
2023-03-19T22:39:09.354Z,10.13
2023-03-19T22:41:46.117Z,13.75
2023-03-19T22:44:22.598Z,13.70
2023-03-19T22:46:57.868Z,15.50
2023-03-19T22:49:32.103Z,14.28
2023-03-19T22:52:05.977Z,12.90
2023-03-19T22:54:38.958Z,23.95
2023-03-19T22:57:15.839Z,12.55
2023-03-19T22:59:51.315Z,10.50
2023-03-19T23:02:24.318Z,15.65
2023-03-19T23:04:58.670Z,14.13
2023-03-19T23:07:31.661Z,11.03
2023-03-19T23:10:10.457Z,17.07
2023-03-19T23:12:43.552Z,13.95
2023-03-19T23:15:16.933Z,12.05
2023-03-19T23:17:50.696Z,16.85
2023-03-19T23:20:26.143Z,11.30
2023-03-19T23:22:59.418Z,10.93
2023-03-19T23:25:32.511Z,17.10
2023-03-19T23:28:06.145Z,11.25
2023-03-19T23:30:41.269Z,13.58
2023-03-19T23:33:14.926Z,12.85
2023-03-19T23:35:48.935Z,9.08
2023-03-19T23:38:21.844Z,15.85
2023-03-19T23:40:54.970Z,12.05
2023-03-19T23:43:29.927Z,9.85
2023-03-19T23:46:03.526Z,11.30
2023-03-19T23:48:42.451Z,9.03
2023-03-19T23:51:17.145Z,11.83
2023-03-19T23:53:51.363Z,11.10
2023-03-19T23:56:26.694Z,11.12
2023-03-19T23:59:00.373Z,12.20
